sensor_id;sensor_type;location;lat;lon;timestamp;temperature;humidity
10390;DHT22;5241;47.830;12.972;2023-06-22T00:02:16;20.50;99.90
10390;DHT22;5241;47.830;12.972;2023-06-22T00:04:41;20.50;99.90
10390;DHT22;5241;47.830;12.972;2023-06-22T00:07:07;20.50;99.90
10390;DHT22;5241;47.830;12.972;2023-06-22T00:09:33;20.50;99.90
10390;DHT22;5241;47.830;12.972;2023-06-22T00:11:59;20.50;99.90
10390;DHT22;5241;47.830;12.972;2023-06-22T00:14:25;20.40;99.90
10390;DHT22;5241;47.830;12.972;2023-06-22T00:16:50;20.40;99.90
10390;DHT22;5241;47.830;12.972;2023-06-22T00:19:20;20.30;99.90
10390;DHT22;5241;47.830;12.972;2023-06-22T00:21:47;20.30;99.90
10390;DHT22;5241;47.830;12.972;2023-06-22T00:24:13;20.30;99.90
10390;DHT22;5241;47.830;12.972;2023-06-22T00:26:39;20.20;99.90
10390;DHT22;5241;47.830;12.972;2023-06-22T00:29:04;20.20;99.90
10390;DHT22;5241;47.830;12.972;2023-06-22T00:31:30;20.20;99.90
10390;DHT22;5241;47.830;12.972;2023-06-22T00:33:55;20.20;99.90
10390;DHT22;5241;47.830;12.972;2023-06-22T00:36:21;20.20;99.90
10390;DHT22;5241;47.830;12.972;2023-06-22T00:38:47;20.20;99.90
10390;DHT22;5241;47.830;12.972;2023-06-22T00:41:12;20.10;99.90
10390;DHT22;5241;47.830;12.972;2023-06-22T00:43:38;20.10;99.90
10390;DHT22;5241;47.830;12.972;2023-06-22T00:46:03;20.10;99.90
10390;DHT22;5241;47.830;12.972;2023-06-22T00:48:29;20.10;99.90
10390;DHT22;5241;47.830;12.972;2023-06-22T00:50:55;20.10;99.90
10390;DHT22;5241;47.830;12.972;2023-06-22T00:53:21;20.10;99.90
10390;DHT22;5241;47.830;12.972;2023-06-22T00:55:48;20.00;99.90
10390;DHT22;5241;47.830;12.972;2023-06-22T00:58:17;20.10;99.90
10390;DHT22;5241;47.830;12.972;2023-06-22T01:00:47;20.10;99.90
10390;DHT22;5241;47.830;12.972;2023-06-22T01:03:13;20.00;99.90
10390;DHT22;5241;47.830;12.972;2023-06-22T01:05:39;20.00;99.90
10390;DHT22;5241;47.830;12.972;2023-06-22T01:11:03;19.90;99.90
10390;DHT22;5241;47.830;12.972;2023-06-22T01:13:42;19.90;99.90
10390;DHT22;5241;47.830;12.972;2023-06-22T01:16:30;19.80;99.90
10390;DHT22;5241;47.830;12.972;2023-06-22T01:19:01;19.70;99.90
10390;DHT22;5241;47.830;12.972;2023-06-22T01:21:31;19.70;99.90
10390;DHT22;5241;47.830;12.972;2023-06-22T01:24:33;19.60;99.90
10390;DHT22;5241;47.830;12.972;2023-06-22T01:30:11;19.50;99.90
10390;DHT22;5241;47.830;12.972;2023-06-22T01:32:40;19.50;99.90
10390;DHT22;5241;47.830;12.972;2023-06-22T01:35:08;19.50;99.90
10390;DHT22;5241;47.830;12.972;2023-06-22T01:37:35;19.40;99.90
10390;DHT22;5241;47.830;12.972;2023-06-22T01:40:02;19.40;99.90
10390;DHT22;5241;47.830;12.972;2023-06-22T01:42:29;19.40;99.90
10390;DHT22;5241;47.830;12.972;2023-06-22T01:44:55;19.40;99.90
10390;DHT22;5241;47.830;12.972;2023-06-22T01:47:22;19.40;99.90
10390;DHT22;5241;47.830;12.972;2023-06-22T01:49:49;19.50;99.90
10390;DHT22;5241;47.830;12.972;2023-06-22T01:52:17;19.40;99.90
10390;DHT22;5241;47.830;12.972;2023-06-22T01:54:43;19.40;99.90
10390;DHT22;5241;47.830;12.972;2023-06-22T01:57:08;19.30;99.90
10390;DHT22;5241;47.830;12.972;2023-06-22T02:02:08;19.10;99.90
10390;DHT22;5241;47.830;12.972;2023-06-22T02:04:47;19.10;99.90
10390;DHT22;5241;47.830;12.972;2023-06-22T02:07:15;19.20;99.90
10390;DHT22;5241;47.830;12.972;2023-06-22T02:09:46;19.10;99.90
10390;DHT22;5241;47.830;12.972;2023-06-22T02:12:17;19.10;99.90
10390;DHT22;5241;47.830;12.972;2023-06-22T02:14:42;19.00;99.90
10390;DHT22;5241;47.830;12.972;2023-06-22T02:17:09;19.10;99.90
10390;DHT22;5241;47.830;12.972;2023-06-22T02:19:40;19.30;99.90
10390;DHT22;5241;47.830;12.972;2023-06-22T02:22:06;19.40;99.90
10390;DHT22;5241;47.830;12.972;2023-06-22T02:24:32;19.40;99.90
10390;DHT22;5241;47.830;12.972;2023-06-22T02:26:59;19.40;99.90
10390;DHT22;5241;47.830;12.972;2023-06-22T02:29:25;19.50;99.90
10390;DHT22;5241;47.830;12.972;2023-06-22T02:31:52;19.40;99.90
10390;DHT22;5241;47.830;12.972;2023-06-22T02:34:17;19.40;99.90
10390;DHT22;5241;47.830;12.972;2023-06-22T02:36:48;19.40;99.90
10390;DHT22;5241;47.830;12.972;2023-06-22T02:39:25;19.40;99.90
10390;DHT22;5241;47.830;12.972;2023-06-22T02:41:52;19.40;99.90
10390;DHT22;5241;47.830;12.972;2023-06-22T02:44:18;19.40;99.90
10390;DHT22;5241;47.830;12.972;2023-06-22T02:46:45;19.30;99.90
10390;DHT22;5241;47.830;12.972;2023-06-22T02:49:11;19.30;99.90
10390;DHT22;5241;47.830;12.972;2023-06-22T02:51:41;19.30;99.90
10390;DHT22;5241;47.830;12.972;2023-06-22T02:54:07;19.30;99.90
10390;DHT22;5241;47.830;12.972;2023-06-22T02:56:32;19.30;99.90
10390;DHT22;5241;47.830;12.972;2023-06-22T02:58:58;19.30;99.90
10390;DHT22;5241;47.830;12.972;2023-06-22T03:01:29;19.20;99.90
10390;DHT22;5241;47.830;12.972;2023-06-22T03:03:56;19.20;99.90
10390;DHT22;5241;47.830;12.972;2023-06-22T03:06:22;19.20;99.90
10390;DHT22;5241;47.830;12.972;2023-06-22T03:08:52;19.20;99.90
10390;DHT22;5241;47.830;12.972;2023-06-22T03:11:17;19.20;99.90
10390;DHT22;5241;47.830;12.972;2023-06-22T03:13:43;19.30;99.90
10390;DHT22;5241;47.830;12.972;2023-06-22T03:16:09;19.30;99.90
10390;DHT22;5241;47.830;12.972;2023-06-22T03:18:34;19.20;99.90
10390;DHT22;5241;47.830;12.972;2023-06-22T03:21:00;19.20;99.90
10390;DHT22;5241;47.830;12.972;2023-06-22T03:23:27;19.30;99.90
10390;DHT22;5241;47.830;12.972;2023-06-22T03:25:53;19.30;99.90
10390;DHT22;5241;47.830;12.972;2023-06-22T03:28:21;19.20;99.90
10390;DHT22;5241;47.830;12.972;2023-06-22T03:30:46;19.20;99.90
10390;DHT22;5241;47.830;12.972;2023-06-22T03:33:12;19.20;99.90
10390;DHT22;5241;47.830;12.972;2023-06-22T03:35:38;19.20;99.90
10390;DHT22;5241;47.830;12.972;2023-06-22T03:38:03;19.20;99.90
10390;DHT22;5241;47.830;12.972;2023-06-22T03:40:29;19.30;99.90
10390;DHT22;5241;47.830;12.972;2023-06-22T03:42:55;19.40;99.90
10390;DHT22;5241;47.830;12.972;2023-06-22T03:45:21;19.30;99.90
10390;DHT22;5241;47.830;12.972;2023-06-22T03:47:46;19.30;99.90
10390;DHT22;5241;47.830;12.972;2023-06-22T03:50:12;19.20;99.90
10390;DHT22;5241;47.830;12.972;2023-06-22T03:52:39;19.10;99.90
10390;DHT22;5241;47.830;12.972;2023-06-22T03:55:06;19.10;99.90
10390;DHT22;5241;47.830;12.972;2023-06-22T03:57:32;19.20;99.90
10390;DHT22;5241;47.830;12.972;2023-06-22T03:59:58;19.20;99.90
10390;DHT22;5241;47.830;12.972;2023-06-22T04:02:24;19.20;99.90
10390;DHT22;5241;47.830;12.972;2023-06-22T04:04:50;19.20;99.90
10390;DHT22;5241;47.830;12.972;2023-06-22T04:07:15;19.20;99.90
10390;DHT22;5241;47.830;12.972;2023-06-22T04:09:41;19.20;99.90
10390;DHT22;5241;47.830;12.972;2023-06-22T04:12:07;19.20;99.90
10390;DHT22;5241;47.830;12.972;2023-06-22T04:14:32;19.20;99.90
10390;DHT22;5241;47.830;12.972;2023-06-22T04:16:58;19.10;99.90
10390;DHT22;5241;47.830;12.972;2023-06-22T04:19:23;19.10;99.90
10390;DHT22;5241;47.830;12.972;2023-06-22T04:21:49;19.10;99.90
10390;DHT22;5241;47.830;12.972;2023-06-22T04:24:15;19.20;99.90
10390;DHT22;5241;47.830;12.972;2023-06-22T04:26:40;19.30;99.90
10390;DHT22;5241;47.830;12.972;2023-06-22T04:29:07;19.20;99.90
10390;DHT22;5241;47.830;12.972;2023-06-22T04:31:34;19.20;99.90
10390;DHT22;5241;47.830;12.972;2023-06-22T04:34:04;19.20;99.90
10390;DHT22;5241;47.830;12.972;2023-06-22T04:36:37;19.20;99.90
10390;DHT22;5241;47.830;12.972;2023-06-22T04:39:10;19.30;99.90
10390;DHT22;5241;47.830;12.972;2023-06-22T04:41:40;19.30;99.90
10390;DHT22;5241;47.830;12.972;2023-06-22T04:44:12;19.40;99.90
10390;DHT22;5241;47.830;12.972;2023-06-22T04:46:38;19.40;99.90
10390;DHT22;5241;47.830;12.972;2023-06-22T04:49:08;19.50;99.90
10390;DHT22;5241;47.830;12.972;2023-06-22T04:51:39;19.60;99.90
10390;DHT22;5241;47.830;12.972;2023-06-22T04:54:05;19.60;99.90
10390;DHT22;5241;47.830;12.972;2023-06-22T04:56:31;19.80;99.90
10390;DHT22;5241;47.830;12.972;2023-06-22T04:58:56;20.00;99.90
10390;DHT22;5241;47.830;12.972;2023-06-22T05:01:23;20.00;99.90
10390;DHT22;5241;47.830;12.972;2023-06-22T05:03:49;20.20;99.90
10390;DHT22;5241;47.830;12.972;2023-06-22T05:06:15;20.30;99.90
10390;DHT22;5241;47.830;12.972;2023-06-22T05:08:40;20.50;99.90
10390;DHT22;5241;47.830;12.972;2023-06-22T05:11:06;20.80;99.90
10390;DHT22;5241;47.830;12.972;2023-06-22T05:13:32;21.00;99.90
10390;DHT22;5241;47.830;12.972;2023-06-22T05:15:58;21.30;99.90
10390;DHT22;5241;47.830;12.972;2023-06-22T05:18:28;21.50;99.90
10390;DHT22;5241;47.830;12.972;2023-06-22T05:20:54;21.80;99.90
10390;DHT22;5241;47.830;12.972;2023-06-22T05:23:20;22.20;99.90
10390;DHT22;5241;47.830;12.972;2023-06-22T05:25:46;22.50;99.90
10390;DHT22;5241;47.830;12.972;2023-06-22T05:28:11;22.80;99.90
10390;DHT22;5241;47.830;12.972;2023-06-22T05:30:38;23.00;99.90
10390;DHT22;5241;47.830;12.972;2023-06-22T05:33:03;23.40;99.90
10390;DHT22;5241;47.830;12.972;2023-06-22T05:35:29;23.70;99.90
10390;DHT22;5241;47.830;12.972;2023-06-22T05:37:55;23.90;99.90
10390;DHT22;5241;47.830;12.972;2023-06-22T05:40:21;24.10;99.90
10390;DHT22;5241;47.830;12.972;2023-06-22T05:42:47;24.40;99.90
10390;DHT22;5241;47.830;12.972;2023-06-22T05:45:13;24.70;99.90
10390;DHT22;5241;47.830;12.972;2023-06-22T05:47:38;24.70;99.90
10390;DHT22;5241;47.830;12.972;2023-06-22T05:50:05;24.70;99.90
10390;DHT22;5241;47.830;12.972;2023-06-22T05:52:34;24.40;99.90
10390;DHT22;5241;47.830;12.972;2023-06-22T05:55:02;24.30;99.90
10390;DHT22;5241;47.830;12.972;2023-06-22T05:57:28;23.80;99.90
10390;DHT22;5241;47.830;12.972;2023-06-22T05:59:53;23.50;99.90
10390;DHT22;5241;47.830;12.972;2023-06-22T06:02:19;23.20;99.90
10390;DHT22;5241;47.830;12.972;2023-06-22T06:04:45;23.30;99.90
10390;DHT22;5241;47.830;12.972;2023-06-22T06:07:10;23.50;99.90
10390;DHT22;5241;47.830;12.972;2023-06-22T06:09:36;23.50;99.90
10390;DHT22;5241;47.830;12.972;2023-06-22T06:12:02;23.70;99.90
10390;DHT22;5241;47.830;12.972;2023-06-22T06:14:28;24.20;99.90
10390;DHT22;5241;47.830;12.972;2023-06-22T06:16:54;24.70;99.90
10390;DHT22;5241;47.830;12.972;2023-06-22T06:19:19;25.10;99.90
10390;DHT22;5241;47.830;12.972;2023-06-22T06:21:45;25.80;99.90
10390;DHT22;5241;47.830;12.972;2023-06-22T06:24:12;26.20;99.90
10390;DHT22;5241;47.830;12.972;2023-06-22T06:26:37;26.30;99.90
10390;DHT22;5241;47.830;12.972;2023-06-22T06:29:03;26.40;99.20
10390;DHT22;5241;47.830;12.972;2023-06-22T06:31:28;26.10;99.90
10390;DHT22;5241;47.830;12.972;2023-06-22T06:33:57;26.20;99.30
10390;DHT22;5241;47.830;12.972;2023-06-22T06:36:23;26.10;99.40
10390;DHT22;5241;47.830;12.972;2023-06-22T06:38:48;26.10;98.50
10390;DHT22;5241;47.830;12.972;2023-06-22T06:41:15;25.80;99.50
10390;DHT22;5241;47.830;12.972;2023-06-22T06:43:41;26.10;99.40
10390;DHT22;5241;47.830;12.972;2023-06-22T06:46:08;26.70;98.50
10390;DHT22;5241;47.830;12.972;2023-06-22T06:48:34;26.90;97.10
10390;DHT22;5241;47.830;12.972;2023-06-22T06:51:00;27.00;96.70
10390;DHT22;5241;47.830;12.972;2023-06-22T06:53:25;27.20;96.40
10390;DHT22;5241;47.830;12.972;2023-06-22T06:55:51;27.50;95.50
10390;DHT22;5241;47.830;12.972;2023-06-22T06:58:16;27.30;96.50
10390;DHT22;5241;47.830;12.972;2023-06-22T07:00:42;27.90;94.80
10390;DHT22;5241;47.830;12.972;2023-06-22T07:03:09;28.20;94.20
10390;DHT22;5241;47.830;12.972;2023-06-22T07:05:34;28.50;93.40
10390;DHT22;5241;47.830;12.972;2023-06-22T07:08:01;28.60;93.00
10390;DHT22;5241;47.830;12.972;2023-06-22T07:10:26;28.40;92.40
10390;DHT22;5241;47.830;12.972;2023-06-22T07:12:52;28.10;93.20
10390;DHT22;5241;47.830;12.972;2023-06-22T07:15:18;28.50;92.00
10390;DHT22;5241;47.830;12.972;2023-06-22T07:17:43;28.70;91.60
10390;DHT22;5241;47.830;12.972;2023-06-22T07:20:09;29.10;90.70
10390;DHT22;5241;47.830;12.972;2023-06-22T07:22:39;29.30;90.20
10390;DHT22;5241;47.830;12.972;2023-06-22T07:25:06;29.20;90.00
10390;DHT22;5241;47.830;12.972;2023-06-22T07:28:06;29.30;89.70
10390;DHT22;5241;47.830;12.972;2023-06-22T07:30:31;29.50;90.00
10390;DHT22;5241;47.830;12.972;2023-06-22T07:32:57;29.30;88.50
10390;DHT22;5241;47.830;12.972;2023-06-22T07:35:24;29.40;89.00
10390;DHT22;5241;47.830;12.972;2023-06-22T07:37:49;29.90;86.50
10390;DHT22;5241;47.830;12.972;2023-06-22T07:40:15;29.90;84.70
10390;DHT22;5241;47.830;12.972;2023-06-22T07:42:40;29.90;86.60
10390;DHT22;5241;47.830;12.972;2023-06-22T07:45:07;30.30;85.80
10390;DHT22;5241;47.830;12.972;2023-06-22T07:47:35;30.40;83.00
10390;DHT22;5241;47.830;12.972;2023-06-22T07:50:02;30.70;82.60
10390;DHT22;5241;47.830;12.972;2023-06-22T07:52:28;30.70;82.20
10390;DHT22;5241;47.830;12.972;2023-06-22T07:54:53;30.90;82.00
10390;DHT22;5241;47.830;12.972;2023-06-22T07:57:20;30.80;82.00
10390;DHT22;5241;47.830;12.972;2023-06-22T07:59:45;30.90;81.50
10390;DHT22;5241;47.830;12.972;2023-06-22T08:02:11;31.20;79.50
10390;DHT22;5241;47.830;12.972;2023-06-22T08:04:37;31.20;79.30
10390;DHT22;5241;47.830;12.972;2023-06-22T08:07:03;31.10;79.50
10390;DHT22;5241;47.830;12.972;2023-06-22T08:09:31;31.20;78.90
10390;DHT22;5241;47.830;12.972;2023-06-22T08:11:57;31.30;78.00
10390;DHT22;5241;47.830;12.972;2023-06-22T08:14:31;31.40;80.30
10390;DHT22;5241;47.830;12.972;2023-06-22T08:16:56;32.00;78.30
10390;DHT22;5241;47.830;12.972;2023-06-22T08:19:22;31.90;76.40
10390;DHT22;5241;47.830;12.972;2023-06-22T08:21:47;31.80;76.50
10390;DHT22;5241;47.830;12.972;2023-06-22T08:24:13;31.90;74.80
10390;DHT22;5241;47.830;12.972;2023-06-22T08:26:39;32.30;73.90
10390;DHT22;5241;47.830;12.972;2023-06-22T08:29:04;32.40;73.30
10390;DHT22;5241;47.830;12.972;2023-06-22T08:31:31;32.20;74.10
10390;DHT22;5241;47.830;12.972;2023-06-22T08:33:58;32.40;75.10
10390;DHT22;5241;47.830;12.972;2023-06-22T08:36:24;32.80;72.80
10390;DHT22;5241;47.830;12.972;2023-06-22T08:38:50;32.90;73.30
10390;DHT22;5241;47.830;12.972;2023-06-22T08:41:17;33.20;71.70
10390;DHT22;5241;47.830;12.972;2023-06-22T08:43:43;33.30;72.50
10390;DHT22;5241;47.830;12.972;2023-06-22T08:46:10;33.00;72.60
10390;DHT22;5241;47.830;12.972;2023-06-22T08:48:36;33.00;71.90
10390;DHT22;5241;47.830;12.972;2023-06-22T08:51:02;33.30;71.00
10390;DHT22;5241;47.830;12.972;2023-06-22T08:53:28;32.90;73.20
10390;DHT22;5241;47.830;12.972;2023-06-22T08:55:54;33.10;69.90
10390;DHT22;5241;47.830;12.972;2023-06-22T08:58:19;33.40;69.40
10390;DHT22;5241;47.830;12.972;2023-06-22T09:00:46;33.10;70.30
10390;DHT22;5241;47.830;12.972;2023-06-22T09:03:12;33.10;70.60
10390;DHT22;5241;47.830;12.972;2023-06-22T09:05:38;33.20;69.90
10390;DHT22;5241;47.830;12.972;2023-06-22T09:08:04;33.30;68.10
10390;DHT22;5241;47.830;12.972;2023-06-22T09:10:29;33.50;68.50
10390;DHT22;5241;47.830;12.972;2023-06-22T09:12:55;34.10;66.90
10390;DHT22;5241;47.830;12.972;2023-06-22T09:15:20;34.70;66.20
10390;DHT22;5241;47.830;12.972;2023-06-22T09:17:46;34.20;66.70
10390;DHT22;5241;47.830;12.972;2023-06-22T09:20:11;33.50;67.40
10390;DHT22;5241;47.830;12.972;2023-06-22T09:22:37;34.30;66.70
10390;DHT22;5241;47.830;12.972;2023-06-22T09:25:03;34.50;65.10
10390;DHT22;5241;47.830;12.972;2023-06-22T09:27:29;34.10;67.70
10390;DHT22;5241;47.830;12.972;2023-06-22T09:29:55;34.90;65.10
10390;DHT22;5241;47.830;12.972;2023-06-22T09:32:20;34.60;66.70
10390;DHT22;5241;47.830;12.972;2023-06-22T09:34:46;34.50;65.80
10390;DHT22;5241;47.830;12.972;2023-06-22T09:37:11;34.50;65.30
10390;DHT22;5241;47.830;12.972;2023-06-22T09:39:37;34.70;64.30
10390;DHT22;5241;47.830;12.972;2023-06-22T09:42:02;34.10;66.60
10390;DHT22;5241;47.830;12.972;2023-06-22T09:44:28;34.30;65.20
10390;DHT22;5241;47.830;12.972;2023-06-22T09:46:53;33.70;67.40
10390;DHT22;5241;47.830;12.972;2023-06-22T09:49:19;33.20;68.70
10390;DHT22;5241;47.830;12.972;2023-06-22T09:51:45;33.20;67.80
10390;DHT22;5241;47.830;12.972;2023-06-22T09:54:10;33.80;66.20
10390;DHT22;5241;47.830;12.972;2023-06-22T09:56:35;34.10;65.90
10390;DHT22;5241;47.830;12.972;2023-06-22T09:59:03;34.40;65.10
10390;DHT22;5241;47.830;12.972;2023-06-22T10:01:28;34.10;65.10
10390;DHT22;5241;47.830;12.972;2023-06-22T10:03:55;33.80;66.70
10390;DHT22;5241;47.830;12.972;2023-06-22T10:06:21;34.70;66.70
10390;DHT22;5241;47.830;12.972;2023-06-22T10:08:47;35.00;63.30
10390;DHT22;5241;47.830;12.972;2023-06-22T10:11:14;35.10;64.00
10390;DHT22;5241;47.830;12.972;2023-06-22T10:13:39;35.20;62.30
10390;DHT22;5241;47.830;12.972;2023-06-22T10:16:05;35.10;64.10
10390;DHT22;5241;47.830;12.972;2023-06-22T10:18:30;34.60;63.50
10390;DHT22;5241;47.830;12.972;2023-06-22T10:20:56;35.00;62.60
10390;DHT22;5241;47.830;12.972;2023-06-22T10:23:22;35.30;63.10
10390;DHT22;5241;47.830;12.972;2023-06-22T10:25:47;35.10;64.50
10390;DHT22;5241;47.830;12.972;2023-06-22T10:28:13;35.10;64.40
10390;DHT22;5241;47.830;12.972;2023-06-22T10:30:41;35.50;64.20
10390;DHT22;5241;47.830;12.972;2023-06-22T10:33:07;35.40;62.80
10390;DHT22;5241;47.830;12.972;2023-06-22T10:35:33;35.20;64.40
10390;DHT22;5241;47.830;12.972;2023-06-22T10:37:59;35.00;65.90
10390;DHT22;5241;47.830;12.972;2023-06-22T10:40:25;35.10;64.90
10390;DHT22;5241;47.830;12.972;2023-06-22T10:42:50;35.80;63.60
10390;DHT22;5241;47.830;12.972;2023-06-22T10:45:16;36.60;62.40
10390;DHT22;5241;47.830;12.972;2023-06-22T10:47:42;37.10;61.20
10390;DHT22;5241;47.830;12.972;2023-06-22T10:50:08;36.10;62.10
10390;DHT22;5241;47.830;12.972;2023-06-22T10:52:33;35.60;63.90
10390;DHT22;5241;47.830;12.972;2023-06-22T10:54:59;35.40;65.10
10390;DHT22;5241;47.830;12.972;2023-06-22T10:57:25;36.20;64.80
10390;DHT22;5241;47.830;12.972;2023-06-22T10:59:50;35.40;64.40
10390;DHT22;5241;47.830;12.972;2023-06-22T11:02:16;34.70;65.40
10390;DHT22;5241;47.830;12.972;2023-06-22T11:04:41;34.70;66.20
10390;DHT22;5241;47.830;12.972;2023-06-22T11:07:07;34.60;65.50
10390;DHT22;5241;47.830;12.972;2023-06-22T11:09:32;34.40;66.10
10390;DHT22;5241;47.830;12.972;2023-06-22T11:11:58;34.00;67.90
10390;DHT22;5241;47.830;12.972;2023-06-22T11:14:25;33.70;69.20
10390;DHT22;5241;47.830;12.972;2023-06-22T11:16:50;33.70;71.10
10390;DHT22;5241;47.830;12.972;2023-06-22T11:19:16;33.70;69.30
10390;DHT22;5241;47.830;12.972;2023-06-22T11:21:41;34.00;69.60
10390;DHT22;5241;47.830;12.972;2023-06-22T11:24:07;34.30;69.70
10390;DHT22;5241;47.830;12.972;2023-06-22T11:26:33;35.30;67.00
10390;DHT22;5241;47.830;12.972;2023-06-22T11:28:59;35.70;65.10
10390;DHT22;5241;47.830;12.972;2023-06-22T11:31:24;36.00;63.30
10390;DHT22;5241;47.830;12.972;2023-06-22T11:33:50;36.40;63.00
10390;DHT22;5241;47.830;12.972;2023-06-22T11:36:16;36.70;61.80
10390;DHT22;5241;47.830;12.972;2023-06-22T11:38:42;36.50;62.70
10390;DHT22;5241;47.830;12.972;2023-06-22T11:41:09;36.80;62.60
10390;DHT22;5241;47.830;12.972;2023-06-22T11:43:35;37.40;62.30
10390;DHT22;5241;47.830;12.972;2023-06-22T11:46:02;37.40;61.50
10390;DHT22;5241;47.830;12.972;2023-06-22T11:48:28;37.40;61.40
10390;DHT22;5241;47.830;12.972;2023-06-22T11:50:54;37.30;61.50
10390;DHT22;5241;47.830;12.972;2023-06-22T11:53:21;37.40;61.50
10390;DHT22;5241;47.830;12.972;2023-06-22T11:55:47;38.30;59.80
10390;DHT22;5241;47.830;12.972;2023-06-22T11:58:14;37.90;60.40
10390;DHT22;5241;47.830;12.972;2023-06-22T12:00:39;37.70;61.30
10390;DHT22;5241;47.830;12.972;2023-06-22T12:03:05;38.10;61.20
10390;DHT22;5241;47.830;12.972;2023-06-22T12:05:31;37.90;61.40
10390;DHT22;5241;47.830;12.972;2023-06-22T12:07:56;38.40;60.90
10390;DHT22;5241;47.830;12.972;2023-06-22T12:10:22;38.50;60.00
10390;DHT22;5241;47.830;12.972;2023-06-22T12:12:48;38.30;59.80
10390;DHT22;5241;47.830;12.972;2023-06-22T12:15:14;38.30;60.00
10390;DHT22;5241;47.830;12.972;2023-06-22T12:17:40;38.10;61.00
10390;DHT22;5241;47.830;12.972;2023-06-22T12:20:06;38.20;60.00
10390;DHT22;5241;47.830;12.972;2023-06-22T12:22:33;38.40;60.20
10390;DHT22;5241;47.830;12.972;2023-06-22T12:24:59;38.60;59.50
10390;DHT22;5241;47.830;12.972;2023-06-22T12:27:25;39.00;59.40
10390;DHT22;5241;47.830;12.972;2023-06-22T12:29:51;39.40;58.40
10390;DHT22;5241;47.830;12.972;2023-06-22T12:32:16;39.60;58.10
10390;DHT22;5241;47.830;12.972;2023-06-22T12:34:42;39.50;57.90
10390;DHT22;5241;47.830;12.972;2023-06-22T12:37:08;39.50;58.10
10390;DHT22;5241;47.830;12.972;2023-06-22T12:39:34;39.40;57.40
10390;DHT22;5241;47.830;12.972;2023-06-22T12:41:59;38.90;58.70
10390;DHT22;5241;47.830;12.972;2023-06-22T12:44:25;39.00;58.60
10390;DHT22;5241;47.830;12.972;2023-06-22T12:46:51;39.60;56.80
10390;DHT22;5241;47.830;12.972;2023-06-22T12:49:16;39.40;57.10
10390;DHT22;5241;47.830;12.972;2023-06-22T12:51:43;39.40;57.50
10390;DHT22;5241;47.830;12.972;2023-06-22T12:54:09;39.70;56.60
10390;DHT22;5241;47.830;12.972;2023-06-22T12:56:35;39.60;56.70
10390;DHT22;5241;47.830;12.972;2023-06-22T12:59:01;39.50;57.80
10390;DHT22;5241;47.830;12.972;2023-06-22T13:01:27;39.70;57.20
10390;DHT22;5241;47.830;12.972;2023-06-22T13:03:53;40.10;56.30
10390;DHT22;5241;47.830;12.972;2023-06-22T13:06:19;39.60;57.30
10390;DHT22;5241;47.830;12.972;2023-06-22T13:08:45;39.50;57.40
10390;DHT22;5241;47.830;12.972;2023-06-22T13:11:10;39.20;57.30
10390;DHT22;5241;47.830;12.972;2023-06-22T13:13:36;39.00;57.80
10390;DHT22;5241;47.830;12.972;2023-06-22T13:16:01;38.80;58.80
10390;DHT22;5241;47.830;12.972;2023-06-22T13:18:27;38.90;58.20
10390;DHT22;5241;47.830;12.972;2023-06-22T13:20:52;39.60;56.70
10390;DHT22;5241;47.830;12.972;2023-06-22T13:23:23;40.10;56.60
10390;DHT22;5241;47.830;12.972;2023-06-22T13:25:48;40.30;55.70
10390;DHT22;5241;47.830;12.972;2023-06-22T13:28:14;40.80;55.20
10390;DHT22;5241;47.830;12.972;2023-06-22T13:30:41;40.70;54.30
10390;DHT22;5241;47.830;12.972;2023-06-22T13:33:07;40.30;54.70
10390;DHT22;5241;47.830;12.972;2023-06-22T13:35:32;40.10;54.90
10390;DHT22;5241;47.830;12.972;2023-06-22T13:37:58;39.90;54.80
10390;DHT22;5241;47.830;12.972;2023-06-22T13:40:23;39.90;55.40
10390;DHT22;5241;47.830;12.972;2023-06-22T13:42:49;39.70;56.10
10390;DHT22;5241;47.830;12.972;2023-06-22T13:45:15;39.70;55.40
10390;DHT22;5241;47.830;12.972;2023-06-22T13:47:42;40.10;54.90
10390;DHT22;5241;47.830;12.972;2023-06-22T13:50:08;40.60;53.10
10390;DHT22;5241;47.830;12.972;2023-06-22T13:52:34;40.60;52.70
10390;DHT22;5241;47.830;12.972;2023-06-22T13:55:00;40.40;52.70
10390;DHT22;5241;47.830;12.972;2023-06-22T13:57:25;40.30;52.40
10390;DHT22;5241;47.830;12.972;2023-06-22T13:59:51;39.70;53.50
10390;DHT22;5241;47.830;12.972;2023-06-22T14:02:16;39.40;53.90
10390;DHT22;5241;47.830;12.972;2023-06-22T14:04:42;38.80;54.90
10390;DHT22;5241;47.830;12.972;2023-06-22T14:07:07;39.20;54.40
10390;DHT22;5241;47.830;12.972;2023-06-22T14:09:33;39.50;53.90
10390;DHT22;5241;47.830;12.972;2023-06-22T14:12:03;39.40;53.90
10390;DHT22;5241;47.830;12.972;2023-06-22T14:14:29;39.50;54.00
10390;DHT22;5241;47.830;12.972;2023-06-22T14:16:54;39.30;54.10
10390;DHT22;5241;47.830;12.972;2023-06-22T14:19:20;38.90;55.10
10390;DHT22;5241;47.830;12.972;2023-06-22T14:21:45;38.20;56.00
10390;DHT22;5241;47.830;12.972;2023-06-22T14:24:11;38.30;56.20
10390;DHT22;5241;47.830;12.972;2023-06-22T14:26:36;38.90;55.60
10390;DHT22;5241;47.830;12.972;2023-06-22T14:29:02;39.50;54.50
10390;DHT22;5241;47.830;12.972;2023-06-22T14:31:27;39.40;54.50
10390;DHT22;5241;47.830;12.972;2023-06-22T14:33:53;39.00;54.70
10390;DHT22;5241;47.830;12.972;2023-06-22T14:36:18;38.10;56.50
10390;DHT22;5241;47.830;12.972;2023-06-22T14:38:44;37.70;57.10
10390;DHT22;5241;47.830;12.972;2023-06-22T14:41:10;38.00;56.10
10390;DHT22;5241;47.830;12.972;2023-06-22T14:43:35;38.60;55.30
10390;DHT22;5241;47.830;12.972;2023-06-22T14:46:01;39.10;54.60
10390;DHT22;5241;47.830;12.972;2023-06-22T14:48:26;39.20;54.20
10390;DHT22;5241;47.830;12.972;2023-06-22T14:50:53;39.10;53.80
10390;DHT22;5241;47.830;12.972;2023-06-22T14:53:19;39.30;53.60
10390;DHT22;5241;47.830;12.972;2023-06-22T14:55:45;39.50;53.20
10390;DHT22;5241;47.830;12.972;2023-06-22T14:58:10;39.40;53.10
10390;DHT22;5241;47.830;12.972;2023-06-22T15:00:37;39.40;53.40
10390;DHT22;5241;47.830;12.972;2023-06-22T15:05:30;39.20;53.60
10390;DHT22;5241;47.830;12.972;2023-06-22T15:07:56;39.20;53.70
10390;DHT22;5241;47.830;12.972;2023-06-22T15:17:07;39.90;53.10
10390;DHT22;5241;47.830;12.972;2023-06-22T15:19:36;40.20;52.50
10390;DHT22;5241;47.830;12.972;2023-06-22T15:22:06;40.10;52.60
10390;DHT22;5241;47.830;12.972;2023-06-22T15:24:32;39.70;53.30
10390;DHT22;5241;47.830;12.972;2023-06-22T15:26:58;39.90;52.30
10390;DHT22;5241;47.830;12.972;2023-06-22T15:29:24;39.40;52.50
10390;DHT22;5241;47.830;12.972;2023-06-22T15:31:49;38.90;53.30
10390;DHT22;5241;47.830;12.972;2023-06-22T15:34:15;39.00;53.40
10390;DHT22;5241;47.830;12.972;2023-06-22T15:36:40;39.20;53.80
10390;DHT22;5241;47.830;12.972;2023-06-22T15:39:06;38.70;54.40
10390;DHT22;5241;47.830;12.972;2023-06-22T15:41:31;38.80;54.50
10390;DHT22;5241;47.830;12.972;2023-06-22T15:43:58;39.20;54.00